createdAt,value
2022-09-22T00:01:06.999Z,42.18
2022-09-22T00:03:57.217Z,42.32
2022-09-22T00:06:48.650Z,42.34
2022-09-22T00:09:37.373Z,42.00
2022-09-22T00:12:25.869Z,42.30
2022-09-22T00:15:15.910Z,42.16
2022-09-22T00:18:04.439Z,41.92
2022-09-22T00:20:53.072Z,42.23
2022-09-22T00:23:42.572Z,41.88
2022-09-22T00:26:31.238Z,42.10
2022-09-22T00:29:19.835Z,42.30
2022-09-22T00:32:09.882Z,42.30
2022-09-22T00:34:58.363Z,42.36
2022-09-22T00:37:46.860Z,42.33
2022-09-22T00:40:36.086Z,42.05
2022-09-22T00:43:26.317Z,42.39
2022-09-22T00:46:19.570Z,42.08
2022-09-22T00:49:10.128Z,42.01
2022-09-22T00:51:58.787Z,41.92
2022-09-22T00:54:47.437Z,42.10
2022-09-22T00:57:37.397Z,42.11
2022-09-22T01:00:25.873Z,42.38
2022-09-22T01:03:17.812Z,42.40
2022-09-22T01:06:09.619Z,42.12
2022-09-22T01:08:58.661Z,42.23
2022-09-22T01:11:47.146Z,42.14
2022-09-22T01:14:47.711Z,42.20
2022-09-22T01:17:46.061Z,42.08
2022-09-22T01:20:59.896Z,41.89
2022-09-22T01:24:40.139Z,42.12
2022-09-22T01:27:56.906Z,42.33
2022-09-22T01:30:48.182Z,42.30
2022-09-22T01:33:43.565Z,42.47
2022-09-22T01:36:37.235Z,42.08
2022-09-22T01:39:30.145Z,42.41
2022-09-22T01:42:24.539Z,42.31
2022-09-22T01:45:16.214Z,42.29
2022-09-22T01:48:10.069Z,42.27
2022-09-22T01:51:01.584Z,42.21
2022-09-22T01:53:53.091Z,42.49
2022-09-22T01:56:43.984Z,42.39
2022-09-22T01:59:34.932Z,42.33
2022-09-22T02:02:25.641Z,42.56
2022-09-22T02:05:20.088Z,42.53
2022-09-22T02:08:11.766Z,42.48
2022-09-22T02:11:04.218Z,42.04
2022-09-22T02:13:52.907Z,42.44
2022-09-22T02:16:41.364Z,42.13
2022-09-22T02:19:32.092Z,42.55
2022-09-22T02:22:22.665Z,42.19
2022-09-22T02:25:12.942Z,42.42
2022-09-22T02:28:01.484Z,42.01
2022-09-22T02:31:17.450Z,42.33
2022-09-22T02:34:00.655Z,42.10
2022-09-22T02:36:53.670Z,42.18
2022-09-22T02:39:48.360Z,42.03
2022-09-22T02:42:41.428Z,42.48
2022-09-22T02:45:32.974Z,42.40
2022-09-22T02:48:23.367Z,42.34
2022-09-22T02:51:12.074Z,42.38
2022-09-22T02:54:01.758Z,42.08
2022-09-22T02:56:51.580Z,41.78
2022-09-22T02:59:39.996Z,42.21
2022-09-22T03:02:28.444Z,42.01
2022-09-22T03:05:17.012Z,42.24
2022-09-22T03:08:05.542Z,41.99
2022-09-22T03:10:53.947Z,42.27
2022-09-22T03:13:43.698Z,42.07
2022-09-22T03:16:32.144Z,41.96
2022-09-22T03:19:20.615Z,42.13
2022-09-22T03:22:09.312Z,41.84
2022-09-22T03:24:57.763Z,41.77
2022-09-22T03:27:48.298Z,42.08
2022-09-22T03:30:40.284Z,41.59
2022-09-22T03:33:28.779Z,41.89
2022-09-22T03:36:17.232Z,41.80
2022-09-22T03:39:05.811Z,41.79
2022-09-22T03:41:54.262Z,41.73
2022-09-22T03:44:42.683Z,41.61
2022-09-22T03:47:32.734Z,42.06
2022-09-22T03:50:21.238Z,42.09
2022-09-22T03:53:09.730Z,41.84
2022-09-22T03:56:07.020Z,41.69
2022-09-22T03:58:55.538Z,41.55
2022-09-22T04:01:44.212Z,41.84
2022-09-22T04:04:34.023Z,41.88
2022-09-22T04:07:22.476Z,41.77
2022-09-22T04:10:11.163Z,42.01
2022-09-22T04:12:59.569Z,41.84
2022-09-22T04:15:48.087Z,41.91
2022-09-22T04:18:40.164Z,41.67
2022-09-22T04:21:29.997Z,41.64
2022-09-22T04:24:18.476Z,41.90
2022-09-22T04:27:22.580Z,41.97
2022-09-22T04:30:12.592Z,41.64
2022-09-22T04:33:01.100Z,42.16
2022-09-22T04:35:49.739Z,42.25
2022-09-22T04:38:39.554Z,42.01
2022-09-22T04:41:28.451Z,41.95
2022-09-22T04:44:16.898Z,42.20
2022-09-22T04:47:05.782Z,41.92
2022-09-22T04:49:54.614Z,42.34
2022-09-22T04:52:46.523Z,42.32
2022-09-22T04:55:36.712Z,41.73
2022-09-22T04:58:25.247Z,41.84
2022-09-22T05:01:13.747Z,41.95
2022-09-22T05:04:02.526Z,41.77
2022-09-22T05:06:51.321Z,42.17
2022-09-22T05:09:39.801Z,42.33
2022-09-22T05:12:29.654Z,41.77
2022-09-22T05:15:18.297Z,41.37
2022-09-22T05:18:07.234Z,41.51
2022-09-22T05:20:55.690Z,41.73
2022-09-22T05:23:44.150Z,41.45
2022-09-22T05:26:32.559Z,41.61
2022-09-22T05:29:25.856Z,41.42
2022-09-22T05:32:16.316Z,41.56
2022-09-22T05:35:05.019Z,41.24
2022-09-22T05:37:54.373Z,41.40
2022-09-22T05:40:42.830Z,41.46
2022-09-22T05:43:31.305Z,41.84
2022-09-22T05:46:21.129Z,41.47
2022-09-22T05:49:09.702Z,41.90
2022-09-22T05:51:58.944Z,41.90
2022-09-22T05:54:47.496Z,41.90
2022-09-22T05:57:36.144Z,41.61
2022-09-22T06:00:24.594Z,41.92
2022-09-22T06:03:17.584Z,42.21
2022-09-22T06:06:06.202Z,41.73
2022-09-22T06:08:54.731Z,41.45
2022-09-22T06:11:44.317Z,42.12
2022-09-22T06:14:32.786Z,41.85
2022-09-22T06:17:21.180Z,41.95
2022-09-22T06:20:11.492Z,41.89
2022-09-22T06:23:00.006Z,41.78
2022-09-22T06:25:48.510Z,42.17
2022-09-22T06:28:37.034Z,42.01
2022-09-22T06:31:25.852Z,41.81
2022-09-22T06:34:14.421Z,42.01
2022-09-22T06:37:06.307Z,41.84
2022-09-22T06:39:54.735Z,42.02
2022-09-22T06:42:43.445Z,41.92
2022-09-22T06:45:33.120Z,41.90
2022-09-22T06:48:23.830Z,41.78
2022-09-22T06:51:14.099Z,42.27
2022-09-22T06:54:05.440Z,42.05
2022-09-22T06:56:55.109Z,41.78
2022-09-22T06:59:44.594Z,42.13
2022-09-22T07:02:33.005Z,42.28
2022-09-22T07:05:21.459Z,42.18
2022-09-22T07:08:09.960Z,42.25
2022-09-22T07:11:02.301Z,41.95
2022-09-22T07:13:53.366Z,41.98
2022-09-22T07:16:44.345Z,42.14
2022-09-22T07:19:36.211Z,41.98
2022-09-22T07:22:24.650Z,42.03
2022-09-22T07:25:13.232Z,42.03
2022-09-22T07:28:05.369Z,41.89
2022-09-22T07:30:53.787Z,41.90
2022-09-22T07:33:44.550Z,41.97
2022-09-22T07:36:34.275Z,42.14
2022-09-22T07:39:25.085Z,42.03
2022-09-22T07:42:14.720Z,42.16
2022-09-22T07:45:16.468Z,41.66
2022-09-22T07:48:24.432Z,42.07
2022-09-22T07:51:16.919Z,41.73
2022-09-22T07:54:07.393Z,41.84
2022-09-22T07:56:58.139Z,41.83
2022-09-22T07:59:46.951Z,41.62
2022-09-22T08:02:36.724Z,41.83
2022-09-22T08:05:26.807Z,41.91
2022-09-22T08:08:15.219Z,41.74
2022-09-22T08:11:08.286Z,41.83
2022-09-22T08:13:58.380Z,41.70
2022-09-22T08:16:47.169Z,41.78
2022-09-22T08:19:37.511Z,42.26
2022-09-22T08:22:26.046Z,41.99
2022-09-22T08:25:14.805Z,41.71
2022-09-22T08:28:04.489Z,41.84
2022-09-22T08:30:52.978Z,42.01
2022-09-22T08:33:42.521Z,42.15
2022-09-22T08:36:32.338Z,41.79
2022-09-22T08:39:20.789Z,41.92
2022-09-22T08:42:13.874Z,42.16
2022-09-22T08:45:06.855Z,42.21
2022-09-22T08:48:15.037Z,42.08
2022-09-22T08:51:24.726Z,42.19
2022-09-22T08:54:15.311Z,42.16
2022-09-22T08:57:21.466Z,42.31
2022-09-22T09:00:14.588Z,42.08
2022-09-22T09:03:16.348Z,41.91
2022-09-22T09:06:12.155Z,42.16
2022-09-22T09:09:20.624Z,41.76
2022-09-22T09:12:21.924Z,42.10
2022-09-22T09:15:33.975Z,41.81
2022-09-22T09:18:24.914Z,41.79
2022-09-22T09:21:16.301Z,42.09
2022-09-22T09:27:21.726Z,41.85
2022-09-22T09:30:14.384Z,42.10
2022-09-22T09:33:04.675Z,41.86
2022-09-22T09:35:53.663Z,41.84
2022-09-22T09:38:46.458Z,41.79
2022-09-22T09:41:39.497Z,41.97
2022-09-22T09:44:33.471Z,41.96
2022-09-22T09:47:30.185Z,41.67
2022-09-22T09:50:19.993Z,41.95
2022-09-22T09:53:18.952Z,42.08
2022-09-22T09:56:22.936Z,42.05
2022-09-22T09:59:32.063Z,41.74
2022-09-22T10:02:23.945Z,41.93
2022-09-22T10:05:22.412Z,41.89
2022-09-22T10:08:20.130Z,41.72
2022-09-22T10:11:09.746Z,41.75
2022-09-22T10:13:59.043Z,41.88
2022-09-22T10:16:53.043Z,41.86
2022-09-22T10:19:42.788Z,41.62
2022-09-22T10:22:31.305Z,41.84
2022-09-22T10:25:23.558Z,41.84
2022-09-22T10:28:16.340Z,41.70
2022-09-22T10:31:04.894Z,41.88
2022-09-22T10:33:56.922Z,41.51
2022-09-22T10:36:49.377Z,41.54
2022-09-22T10:39:41.928Z,41.39
2022-09-22T10:42:34.311Z,41.34
2022-09-22T10:45:32.082Z,41.70
2022-09-22T10:48:26.213Z,41.38
2022-09-22T10:51:18.250Z,41.53
2022-09-22T10:54:20.102Z,41.65
2022-09-22T10:57:17.870Z,41.66
2022-09-22T11:00:12.465Z,41.42
2022-09-22T11:03:23.997Z,41.48
2022-09-22T11:06:42.419Z,41.44
2022-09-22T11:09:54.976Z,41.74
2022-09-22T11:12:49.995Z,41.74
2022-09-22T11:15:46.375Z,41.44
2022-09-22T11:18:45.130Z,41.52
2022-09-22T11:21:44.044Z,41.65
2022-09-22T11:24:46.578Z,41.27
2022-09-22T11:27:43.860Z,41.35
2022-09-22T11:30:35.888Z,41.78
2022-09-22T11:33:37.253Z,41.58
2022-09-22T11:36:35.745Z,41.29
2022-09-22T11:39:37.977Z,41.43
2022-09-22T11:42:31.909Z,41.32
2022-09-22T11:45:34.027Z,41.48
2022-09-22T11:48:34.443Z,41.46
2022-09-22T11:51:32.480Z,41.72
2022-09-22T11:54:32.003Z,41.64
2022-09-22T11:57:24.852Z,41.61
2022-09-22T12:00:16.400Z,41.50
2022-09-22T12:03:09.526Z,41.38
2022-09-22T12:06:00.800Z,41.29
2022-09-22T12:11:47.664Z,41.75
2022-09-22T12:14:38.356Z,41.74
2022-09-22T12:17:35.192Z,41.19
2022-09-22T12:20:37.075Z,41.68
2022-09-22T12:23:36.951Z,41.23
2022-09-22T12:26:29.250Z,41.56
2022-09-22T12:29:28.563Z,41.63
2022-09-22T12:32:24.986Z,41.66
2022-09-22T12:35:19.362Z,41.62
2022-09-22T12:38:07.915Z,41.34
2022-09-22T12:41:03.493Z,41.37
2022-09-22T12:43:52.179Z,41.17
2022-09-22T12:46:43.279Z,41.33
2022-09-22T12:49:33.198Z,41.30
2022-09-22T12:52:38.856Z,40.98
2022-09-22T12:55:38.425Z,41.12
2022-09-22T12:58:46.049Z,40.89
2022-09-22T13:01:35.902Z,41.04
2022-09-22T13:04:25.442Z,40.78
2022-09-22T13:07:35.130Z,41.07
2022-09-22T13:10:42.811Z,41.09
2022-09-22T13:13:39.921Z,38.14
2022-09-22T13:16:36.414Z,34.42
2022-09-22T13:19:24.895Z,31.48
2022-09-22T13:22:17.738Z,32.60
2022-09-22T13:25:26.867Z,34.74
2022-09-22T13:28:18.091Z,34.39
2022-09-22T13:31:17.162Z,35.54
2022-09-22T13:34:22.802Z,35.40
2022-09-22T13:37:13.950Z,35.63
2022-09-22T13:40:02.690Z,35.27
2022-09-22T13:42:53.606Z,35.10
2022-09-22T13:45:42.048Z,35.37
2022-09-22T13:48:34.135Z,35.57
2022-09-22T13:51:24.962Z,34.60
2022-09-22T13:54:16.563Z,34.19
2022-09-22T13:57:06.722Z,34.35
2022-09-22T13:59:58.335Z,34.59
2022-09-22T14:02:46.963Z,34.19
2022-09-22T14:05:36.846Z,34.20
2022-09-22T14:08:29.513Z,33.85
2022-09-22T14:11:20.680Z,33.93
2022-09-22T14:14:23.216Z,33.69
2022-09-22T14:17:17.640Z,33.46
2022-09-22T14:20:07.662Z,33.63
2022-09-22T14:22:56.469Z,33.72
2022-09-22T14:25:45.377Z,33.58
2022-09-22T14:28:37.094Z,33.02
2022-09-22T14:31:27.920Z,32.60
2022-09-22T14:34:22.798Z,32.72
2022-09-22T14:37:18.358Z,32.97
2022-09-22T14:40:15.475Z,33.09
2022-09-22T14:43:08.893Z,32.46
2022-09-22T14:46:06.058Z,32.58
2022-09-22T14:48:57.449Z,32.79
2022-09-22T14:51:49.242Z,33.22
2022-09-22T14:54:39.018Z,33.20
2022-09-22T14:57:28.592Z,32.75
2022-09-22T15:00:36.352Z,32.79
2022-09-22T15:03:28.086Z,33.01
2022-09-22T15:06:16.684Z,32.93
2022-09-22T15:09:07.167Z,33.32
2022-09-22T15:11:57.857Z,33.43
2022-09-22T15:14:47.157Z,33.51
2022-09-22T15:17:55.872Z,33.37
2022-09-22T15:20:47.013Z,33.39
2022-09-22T15:23:41.078Z,33.54
2022-09-22T15:26:32.890Z,33.41
2022-09-22T15:29:21.422Z,33.39
2022-09-22T15:32:10.117Z,33.44
2022-09-22T15:34:58.967Z,33.66
2022-09-22T15:37:49.670Z,33.69
2022-09-22T15:40:38.154Z,34.03
2022-09-22T15:43:30.942Z,33.96
2022-09-22T15:46:28.227Z,33.84
2022-09-22T15:49:20.826Z,33.69
2022-09-22T15:52:10.663Z,33.58
2022-09-22T15:55:02.031Z,34.24
2022-09-22T15:57:52.731Z,34.18
2022-09-22T16:00:42.612Z,33.91
2022-09-22T16:03:31.431Z,33.95
2022-09-22T16:06:21.279Z,34.16
2022-09-22T16:09:11.624Z,34.29
2022-09-22T16:12:00.163Z,34.20
2022-09-22T16:14:52.069Z,34.23
2022-09-22T16:17:42.925Z,34.57
2022-09-22T16:20:33.743Z,34.62
2022-09-22T16:23:22.389Z,34.54
2022-09-22T16:26:10.974Z,34.95
2022-09-22T16:29:00.012Z,34.71
2022-09-22T16:31:48.982Z,34.79
2022-09-22T16:34:38.898Z,35.07
2022-09-22T16:37:29.177Z,34.90
2022-09-22T16:40:19.929Z,34.98
2022-09-22T16:43:09.383Z,34.82
2022-09-22T16:46:15.827Z,34.78
2022-09-22T16:49:06.041Z,34.49
2022-09-22T16:51:56.274Z,34.45
2022-09-22T16:54:44.724Z,34.63
2022-09-22T16:57:34.366Z,34.96
2022-09-22T17:00:22.805Z,34.97
2022-09-22T17:03:11.231Z,35.10
2022-09-22T17:06:05.407Z,35.66
2022-09-22T17:08:57.050Z,36.63
2022-09-22T17:11:47.467Z,36.90
2022-09-22T17:14:37.022Z,36.75
2022-09-22T17:17:25.597Z,36.51
2022-09-22T17:20:13.999Z,36.83
2022-09-22T17:23:02.543Z,36.77
2022-09-22T17:25:52.859Z,36.83
2022-09-22T17:28:41.385Z,36.85
2022-09-22T17:31:31.116Z,36.73
2022-09-22T17:34:19.704Z,37.02
2022-09-22T17:37:14.098Z,36.81
2022-09-22T17:40:02.990Z,37.08
2022-09-22T17:42:57.199Z,37.16
2022-09-22T17:45:46.141Z,37.18
2022-09-22T17:48:59.085Z,37.08
2022-09-22T17:52:06.738Z,36.76
2022-09-22T17:55:11.750Z,37.03
2022-09-22T17:58:01.603Z,37.12
2022-09-22T18:00:51.667Z,37.07
2022-09-22T18:03:40.125Z,36.80
2022-09-22T18:06:28.562Z,36.94
2022-09-22T18:09:17.912Z,37.20
2022-09-22T18:12:10.048Z,36.77
2022-09-22T18:15:03.880Z,37.31
2022-09-22T18:17:55.566Z,37.19
2022-09-22T18:20:44.019Z,37.17
2022-09-22T18:23:32.535Z,36.88
2022-09-22T18:26:21.176Z,36.86
2022-09-22T18:29:10.558Z,36.91
2022-09-22T18:32:00.423Z,37.19
2022-09-22T18:34:51.271Z,37.02
2022-09-22T18:37:39.732Z,36.93
2022-09-22T18:40:30.074Z,37.16
2022-09-22T18:43:18.636Z,37.18
2022-09-22T18:46:07.364Z,36.96
2022-09-22T18:49:04.879Z,37.19
2022-09-22T18:51:56.497Z,37.40
2022-09-22T18:54:44.969Z,37.01
2022-09-22T18:57:33.423Z,36.87
2022-09-22T19:00:22.189Z,37.01
2022-09-22T19:03:10.965Z,36.60
2022-09-22T19:06:00.834Z,36.90
2022-09-22T19:08:49.337Z,37.02
2022-09-22T19:11:38.317Z,37.21
2022-09-22T19:14:27.074Z,37.59
2022-09-22T19:17:17.239Z,37.46
2022-09-22T19:20:07.097Z,37.72
2022-09-22T19:22:57.558Z,37.61
2022-09-22T19:25:46.470Z,37.33
2022-09-22T19:28:35.507Z,37.42
2022-09-22T19:31:23.908Z,37.52
2022-09-22T19:34:13.542Z,37.43
2022-09-22T19:37:01.999Z,37.12
2022-09-22T19:39:51.978Z,37.47
2022-09-22T19:42:40.652Z,37.49
2022-09-22T19:45:29.363Z,37.34
2022-09-22T19:48:17.756Z,36.99
2022-09-22T19:51:06.813Z,37.17
2022-09-22T19:53:55.202Z,37.17
2022-09-22T19:56:44.957Z,36.96
2022-09-22T19:59:33.499Z,36.98
2022-09-22T20:02:21.863Z,35.77
2022-09-22T20:05:19.423Z,35.52
2022-09-22T20:08:15.636Z,35.46
2022-09-22T20:11:22.995Z,35.25
2022-09-22T20:14:25.304Z,35.02
2022-09-22T20:17:13.935Z,35.07
2022-09-22T20:20:05.770Z,35.14
2022-09-22T20:22:59.323Z,34.75
2022-09-22T20:25:48.895Z,35.58
2022-09-22T20:28:41.351Z,35.69
2022-09-22T20:31:32.655Z,35.89
2022-09-22T20:34:21.257Z,35.75
2022-09-22T20:37:10.768Z,35.40
2022-09-22T20:39:59.397Z,35.52
2022-09-22T20:42:48.621Z,35.63
2022-09-22T20:45:37.239Z,35.49
2022-09-22T20:48:27.467Z,35.75
2022-09-22T20:51:16.145Z,35.77
2022-09-22T20:54:04.658Z,36.08
2022-09-22T20:56:55.694Z,35.92
2022-09-22T20:59:46.173Z,36.07
2022-09-22T21:02:35.024Z,36.27
2022-09-22T21:05:25.104Z,35.94
2022-09-22T21:08:31.184Z,35.98
2022-09-22T21:11:21.465Z,35.93
2022-09-22T21:14:11.234Z,35.92
2022-09-22T21:17:02.261Z,36.33
2022-09-22T21:19:50.872Z,36.55
2022-09-22T21:22:40.988Z,36.64
2022-09-22T21:25:30.842Z,36.39
2022-09-22T21:28:19.466Z,36.92
2022-09-22T21:31:14.648Z,36.22
2022-09-22T21:34:03.386Z,36.58
2022-09-22T21:36:54.051Z,36.84
2022-09-22T21:39:44.014Z,37.08
2022-09-22T21:42:33.870Z,36.91
2022-09-22T21:45:22.454Z,37.24
2022-09-22T21:48:11.241Z,36.80
2022-09-22T21:51:01.395Z,37.05
2022-09-22T21:53:52.814Z,36.74
2022-09-22T21:56:42.815Z,37.13
2022-09-22T21:59:31.326Z,36.63
2022-09-22T22:02:19.724Z,37.07
2022-09-22T22:05:08.511Z,36.57
2022-09-22T22:07:57.005Z,36.59
2022-09-22T22:10:46.877Z,36.70
2022-09-22T22:13:38.630Z,36.68
2022-09-22T22:16:31.232Z,36.51
2022-09-22T22:19:21.844Z,36.48
2022-09-22T22:22:11.095Z,36.60
2022-09-22T22:24:59.487Z,36.35
2022-09-22T22:27:47.920Z,36.55
2022-09-22T22:30:41.918Z,36.93
2022-09-22T22:33:31.425Z,36.79
2022-09-22T22:36:20.074Z,36.92
2022-09-22T22:39:08.815Z,37.29
2022-09-22T22:41:57.508Z,37.07
2022-09-22T22:44:45.917Z,37.05
2022-09-22T22:47:35.660Z,37.14
2022-09-22T22:50:25.595Z,37.31
2022-09-22T22:53:14.978Z,37.54
2022-09-22T22:56:05.435Z,37.12
2022-09-22T22:58:54.105Z,36.96
2022-09-22T23:01:44.542Z,37.35
2022-09-22T23:04:34.488Z,37.38
2022-09-22T23:07:22.852Z,37.25
2022-09-22T23:10:11.373Z,37.62
2022-09-22T23:13:01.221Z,37.43
2022-09-22T23:15:51.249Z,37.32
2022-09-22T23:18:42.192Z,37.48
2022-09-22T23:21:34.205Z,37.24
2022-09-22T23:24:22.725Z,37.63
2022-09-22T23:27:12.276Z,37.62
2022-09-22T23:30:00.696Z,37.68
2022-09-22T23:32:49.071Z,37.74
2022-09-22T23:35:37.519Z,37.41
2022-09-22T23:38:29.341Z,37.63
2022-09-22T23:41:18.059Z,37.46
2022-09-22T23:44:07.408Z,37.66
2022-09-22T23:46:56.087Z,37.83
2022-09-22T23:49:44.812Z,37.54
2022-09-22T23:52:33.259Z,37.73
2022-09-22T23:55:23.096Z,37.73
2022-09-22T23:58:12.101Z,37.62
